createdAt,value
2018-04-10T00:01:00.918Z,74.90
2018-04-10T00:13:14.135Z,75.41
2018-04-10T00:15:42.210Z,75.22
2018-04-10T00:18:10.321Z,75.21
2018-04-10T00:20:38.432Z,74.90
2018-04-10T00:23:07.232Z,74.92
2018-04-10T00:25:35.372Z,74.98
2018-04-10T00:28:03.488Z,74.66
2018-04-10T00:30:31.605Z,74.37
2018-04-10T00:32:59.696Z,74.39
2018-04-10T00:35:28.520Z,74.50
2018-04-10T00:37:56.617Z,74.39
2018-04-10T00:40:25.420Z,74.39
2018-04-10T00:42:53.517Z,74.39
2018-04-10T00:45:21.611Z,74.88
2018-04-10T00:47:49.732Z,74.88
2018-04-10T00:50:17.869Z,74.85
2018-04-10T00:52:45.928Z,75.07
2018-04-10T00:55:15.034Z,75.19
2018-04-10T00:57:43.161Z,74.91
2018-04-10T01:00:11.259Z,74.98
2018-04-10T01:02:39.377Z,75.04
2018-04-10T01:05:07.467Z,75.29
2018-04-10T01:07:35.561Z,75.24
2018-04-10T01:10:03.669Z,75.21
2018-04-10T01:12:31.767Z,75.54
2018-04-10T01:14:59.892Z,75.70
2018-04-10T01:17:28.819Z,75.63
2018-04-10T01:19:56.941Z,76.31
2018-04-10T01:22:25.052Z,76.73
2018-04-10T01:24:54.719Z,76.83
2018-04-10T01:27:22.803Z,76.39
2018-04-10T01:29:50.908Z,76.65
2018-04-10T01:32:19.011Z,76.50
2018-04-10T01:34:47.557Z,76.15
2018-04-10T01:37:15.659Z,76.15
2018-04-10T01:39:44.659Z,75.95
2018-04-10T01:42:12.815Z,76.06
2018-04-10T01:44:40.940Z,76.04
2018-04-10T01:47:09.035Z,76.05
2018-04-10T02:02:37.600Z,76.82
2018-04-10T02:05:05.700Z,76.79
2018-04-10T02:07:33.796Z,76.70
2018-04-10T02:10:02.281Z,76.65
2018-04-10T02:12:30.388Z,76.56
2018-04-10T02:14:58.486Z,76.65
2018-04-10T02:17:26.588Z,76.78
2018-04-10T02:19:54.678Z,77.17
2018-04-10T02:22:22.781Z,77.39
2018-04-10T02:24:50.905Z,77.61
2018-04-10T02:27:19.005Z,77.77
2018-04-10T02:29:47.393Z,78.24
2018-04-10T02:32:16.673Z,78.28
2018-04-10T02:34:45.545Z,78.37
2018-04-10T02:37:13.981Z,78.39
2018-04-10T02:39:42.083Z,78.37
2018-04-10T02:42:10.268Z,78.59
2018-04-10T02:44:38.865Z,78.66
2018-04-10T02:47:07.771Z,78.96
2018-04-10T02:49:35.951Z,79.17
2018-04-10T02:52:04.064Z,79.09
2018-04-10T02:54:32.211Z,79.15
2018-04-10T02:57:00.287Z,79.10
2018-04-10T02:59:28.414Z,79.07
2018-04-10T03:01:58.761Z,79.07
2018-04-10T03:04:27.330Z,79.28
2018-04-10T03:06:55.496Z,79.49
2018-04-10T03:09:23.624Z,79.48
2018-04-10T03:11:52.743Z,79.50
2018-04-10T03:14:20.856Z,79.83
2018-04-10T03:16:51.613Z,79.84
2018-04-10T03:19:19.704Z,79.72
2018-04-10T03:21:48.836Z,79.80
2018-04-10T03:24:16.927Z,79.87
2018-04-10T03:26:45.020Z,79.83
2018-04-10T03:29:13.159Z,79.84
2018-04-10T03:31:41.280Z,79.91
2018-04-10T03:34:09.987Z,80.06
2018-04-10T03:36:38.093Z,80.20
2018-04-10T03:39:08.971Z,80.28
2018-04-10T03:41:37.072Z,80.25
2018-04-10T03:44:06.176Z,80.19
2018-04-10T03:46:34.290Z,80.25
2018-04-10T03:49:02.381Z,80.27
2018-04-10T03:51:30.483Z,80.24
2018-04-10T03:53:58.612Z,80.29
2018-04-10T03:56:27.011Z,80.44
2018-04-10T03:58:55.116Z,80.49
2018-04-10T04:01:23.251Z,80.46
2018-04-10T04:03:51.867Z,80.29
2018-04-10T04:06:19.939Z,80.02
2018-04-10T04:08:48.552Z,79.75
2018-04-10T04:11:16.664Z,79.58
2018-04-10T04:13:44.781Z,79.43
2018-04-10T04:16:24.652Z,79.31
2018-04-10T04:19:04.747Z,79.06
2018-04-10T04:21:44.707Z,78.68
2018-04-10T04:24:12.864Z,78.47
2018-04-10T04:26:40.982Z,78.31
2018-04-10T04:29:09.088Z,78.01
2018-04-10T04:31:37.228Z,77.82
2018-04-10T04:34:05.351Z,77.68
2018-04-10T04:36:33.447Z,77.48
2018-04-10T04:39:01.554Z,77.32
2018-04-10T04:41:29.647Z,77.30
2018-04-10T04:43:57.755Z,77.33
2018-04-10T04:46:25.883Z,77.41
2018-04-10T04:48:53.984Z,77.29
2018-04-10T04:51:22.087Z,77.32
2018-04-10T04:53:50.216Z,77.21
2018-04-10T04:56:18.321Z,77.28
2018-04-10T04:58:46.429Z,77.21
2018-04-10T05:01:15.148Z,77.15
2018-04-10T05:03:43.269Z,77.29
2018-04-10T05:06:12.307Z,77.36
2018-04-10T05:08:40.431Z,77.34
2018-04-10T05:11:08.936Z,77.48
2018-04-10T05:13:37.045Z,77.69
2018-04-10T05:16:05.222Z,77.70
2018-04-10T05:18:33.299Z,77.60
2018-04-10T05:21:01.449Z,77.61
2018-04-10T05:23:29.569Z,77.55
2018-04-10T05:25:57.675Z,77.42
2018-04-10T05:28:25.795Z,77.47
2018-04-10T05:30:53.936Z,77.24
2018-04-10T05:33:22.061Z,77.03
2018-04-10T05:35:53.102Z,77.09
2018-04-10T05:38:21.205Z,76.65
2018-04-10T05:40:49.324Z,76.30
2018-04-10T05:43:18.038Z,76.08
2018-04-10T05:45:46.191Z,75.92
2018-04-10T05:48:14.298Z,75.30
2018-04-10T05:50:42.402Z,75.16
2018-04-10T05:53:10.598Z,74.85
2018-04-10T05:55:38.707Z,74.84
2018-04-10T05:58:06.817Z,74.81
2018-04-10T06:00:34.922Z,74.78
2018-04-10T06:03:08.701Z,74.80
2018-04-10T06:05:37.157Z,75.02
2018-04-10T06:08:05.263Z,75.03
2018-04-10T06:10:33.729Z,75.13
2018-04-10T06:13:01.831Z,75.24
2018-04-10T06:15:29.944Z,74.86
2018-04-10T06:17:58.047Z,74.92
2018-04-10T06:20:26.395Z,74.59
2018-04-10T06:22:54.480Z,74.28
2018-04-10T06:25:23.405Z,74.10
2018-04-10T06:27:51.838Z,74.05
2018-04-10T06:30:20.026Z,73.76
2018-04-10T06:32:48.176Z,73.68
2018-04-10T06:35:16.289Z,73.06
2018-04-10T06:37:44.393Z,72.72
2018-04-10T06:40:12.656Z,72.93
2018-04-10T06:55:40.780Z,72.74
2018-04-10T06:58:08.903Z,72.44
2018-04-10T07:00:37.011Z,72.21
2018-04-10T07:03:05.140Z,71.84
2018-04-10T07:05:33.248Z,71.38
2018-04-10T07:08:01.414Z,71.08
2018-04-10T07:10:29.516Z,70.47
2018-04-10T07:12:57.628Z,70.07
2018-04-10T07:15:25.764Z,69.85
2018-04-10T07:17:53.880Z,69.55
2018-04-10T07:20:23.018Z,69.19
2018-04-10T07:22:51.732Z,68.59
2018-04-10T07:25:21.199Z,67.91
2018-04-10T07:27:49.316Z,67.32
2018-04-10T07:30:18.189Z,66.39
2018-04-10T07:32:46.290Z,66.15
2018-04-10T07:35:14.413Z,65.88
2018-04-10T07:37:42.579Z,65.60
2018-04-10T07:40:10.721Z,65.55
2018-04-10T07:42:38.836Z,64.68
2018-04-10T07:45:07.955Z,64.22
2018-04-10T07:47:36.829Z,64.13
2018-04-10T08:03:04.959Z,59.92
2018-04-10T08:05:33.136Z,59.78
2018-04-10T08:08:01.258Z,59.56
2018-04-10T08:10:29.358Z,60.06
2018-04-10T08:12:57.467Z,60.43
2018-04-10T08:15:25.614Z,59.70
2018-04-10T08:17:53.734Z,59.37
2018-04-10T08:20:21.844Z,58.87
2018-04-10T08:22:49.985Z,59.22
2018-04-10T08:25:18.094Z,59.24
2018-04-10T08:27:46.197Z,59.47
2018-04-10T08:30:14.313Z,59.48
2018-04-10T08:32:42.445Z,58.93
2018-04-10T08:35:10.539Z,59.16
2018-04-10T08:37:38.669Z,58.29
2018-04-10T08:40:07.217Z,58.65
2018-04-10T08:42:35.353Z,58.43
2018-04-10T08:45:04.097Z,58.15
2018-04-10T08:47:32.217Z,58.00
2018-04-10T08:50:00.417Z,58.11
2018-04-10T08:52:28.509Z,58.08
2018-04-10T08:54:56.661Z,58.21
2018-04-10T08:57:24.784Z,58.24
2018-04-10T08:59:52.889Z,58.48
2018-04-10T09:02:21.024Z,58.66
2018-04-10T09:04:49.130Z,58.69
2018-04-10T09:07:17.252Z,58.02
2018-04-10T09:09:45.374Z,58.39
2018-04-10T09:12:13.466Z,58.46
2018-04-10T09:14:42.005Z,58.37
2018-04-10T09:17:10.129Z,58.31
2018-04-10T09:19:38.587Z,58.37
2018-04-10T09:22:07.162Z,58.35
2018-04-10T09:24:35.318Z,58.37
2018-04-10T09:27:03.461Z,58.53
2018-04-10T09:29:31.578Z,58.44
2018-04-10T09:32:01.528Z,58.22
2018-04-10T09:34:29.601Z,58.40
2018-04-10T09:36:58.960Z,57.94
2018-04-10T09:39:27.808Z,57.78
2018-04-10T09:41:55.939Z,57.14
2018-04-10T09:44:24.338Z,57.22
2018-04-10T09:46:52.437Z,57.58
2018-04-10T09:49:21.442Z,57.73
2018-04-10T09:51:49.987Z,57.85
2018-04-10T09:54:18.076Z,57.73
2018-04-10T09:56:46.410Z,57.55
2018-04-10T09:59:14.527Z,58.18
2018-04-10T10:01:42.642Z,58.18
2018-04-10T10:04:10.757Z,58.75
2018-04-10T10:06:38.911Z,58.79
2018-04-10T10:09:07.080Z,58.35
2018-04-10T10:11:35.188Z,57.95
2018-04-10T10:14:03.286Z,57.48
2018-04-10T10:16:32.175Z,56.26
2018-04-10T10:19:01.247Z,56.26
2018-04-10T10:21:29.376Z,56.26
2018-04-10T10:23:57.483Z,55.41
2018-04-10T10:26:25.612Z,55.69
2018-04-10T10:28:53.722Z,56.17
2018-04-10T10:31:21.873Z,55.71
2018-04-10T10:33:50.005Z,55.77
2018-04-10T10:36:18.137Z,55.68
2018-04-10T10:38:46.238Z,55.89
2018-04-10T10:41:14.385Z,55.80
2018-04-10T10:43:42.484Z,55.66
2018-04-10T10:46:11.356Z,55.43
2018-04-10T10:48:39.804Z,54.51
2018-04-10T10:51:08.255Z,54.62
2018-04-10T10:53:36.350Z,54.37
2018-04-10T10:56:09.418Z,53.75
2018-04-10T10:58:37.514Z,53.65
2018-04-10T11:01:05.647Z,54.28
2018-04-10T11:03:33.761Z,53.87
2018-04-10T11:06:02.113Z,54.51
2018-04-10T11:08:30.210Z,55.50
2018-04-10T11:10:58.321Z,55.37
2018-04-10T11:13:26.422Z,55.53
2018-04-10T11:15:54.550Z,55.73
2018-04-10T11:18:22.665Z,55.81
2018-04-10T11:20:51.521Z,55.95
2018-04-10T11:23:19.643Z,55.98
2018-04-10T11:25:47.769Z,55.63
2018-04-10T11:28:15.882Z,55.90
2018-04-10T11:30:44.002Z,55.48
2018-04-10T11:33:12.092Z,55.14
2018-04-10T11:35:40.196Z,55.38
2018-04-10T11:38:09.208Z,55.34
2018-04-10T11:40:37.308Z,55.41
2018-04-10T11:43:06.438Z,55.27
2018-04-10T11:45:34.539Z,55.53
2018-04-10T11:48:02.913Z,55.06
2018-04-10T11:50:31.032Z,54.23
2018-04-10T11:52:59.129Z,55.18
2018-04-10T11:55:27.307Z,55.43
2018-04-10T11:57:55.453Z,55.09
2018-04-10T12:00:23.561Z,55.21
2018-04-10T12:02:51.740Z,54.61
2018-04-10T12:05:19.961Z,54.21
2018-04-10T12:07:48.044Z,54.42
2018-04-10T12:10:16.163Z,54.09
2018-04-10T12:12:44.283Z,53.76
2018-04-10T12:15:12.389Z,53.45
2018-04-10T12:17:40.500Z,53.14
2018-04-10T12:20:09.552Z,53.15
2018-04-10T12:22:38.117Z,53.20
2018-04-10T12:25:06.244Z,52.53
2018-04-10T12:27:34.849Z,52.46
2018-04-10T12:30:03.775Z,52.60
2018-04-10T12:32:31.873Z,52.38
2018-04-10T12:35:00.000Z,52.82
2018-04-10T12:37:28.146Z,53.12
2018-04-10T12:39:56.242Z,53.44
2018-04-10T12:42:24.360Z,53.86
2018-04-10T12:44:52.510Z,54.23
2018-04-10T12:47:20.642Z,54.29
2018-04-10T12:49:48.949Z,53.29
2018-04-10T12:52:17.325Z,53.59
2018-04-10T12:54:45.724Z,53.68
2018-04-10T12:57:14.441Z,53.08
2018-04-10T12:59:42.541Z,53.35
2018-04-10T13:15:10.714Z,52.85
2018-04-10T13:17:38.835Z,52.46
2018-04-10T13:20:07.381Z,52.00
2018-04-10T13:22:35.477Z,51.17
2018-04-10T13:25:03.716Z,50.69
2018-04-10T13:27:32.412Z,50.61
2018-04-10T13:30:00.519Z,50.82
2018-04-10T13:32:28.616Z,50.86
2018-04-10T13:34:57.508Z,50.72
2018-04-10T13:37:25.762Z,50.28
2018-04-10T13:39:54.082Z,50.08
2018-04-10T13:42:22.176Z,50.06
2018-04-10T13:44:51.700Z,50.55
2018-04-10T13:47:19.821Z,50.19
2018-04-10T13:49:47.956Z,50.36
2018-04-10T13:52:16.068Z,50.21
2018-04-10T13:54:44.986Z,50.41
2018-04-10T13:57:13.090Z,49.95
2018-04-10T13:59:41.184Z,49.72
2018-04-10T14:02:09.282Z,48.84
2018-04-10T14:04:38.239Z,48.53
2018-04-10T14:07:07.028Z,48.86
2018-04-10T14:09:35.140Z,47.00
2018-04-10T14:12:03.241Z,47.14
2018-04-10T14:14:31.391Z,46.74
2018-04-10T14:16:59.535Z,46.91
2018-04-10T14:19:27.647Z,47.45
2018-04-10T14:21:55.755Z,47.50
2018-04-10T14:24:23.893Z,46.88
2018-04-10T14:26:51.976Z,47.51
2018-04-10T14:29:20.084Z,47.51
2018-04-10T14:34:23.292Z,47.65
2018-04-10T14:36:51.509Z,47.39
2018-04-10T14:39:19.968Z,48.84
2018-04-10T14:41:48.105Z,49.02
2018-04-10T14:44:16.222Z,49.19
2018-04-10T14:46:45.125Z,50.02
2018-04-10T14:49:13.298Z,50.02
2018-04-10T14:51:42.366Z,50.37
2018-04-10T14:54:11.771Z,50.30
2018-04-10T14:56:39.855Z,50.19
2018-04-10T14:59:08.765Z,50.40
2018-04-10T15:01:36.897Z,48.90
2018-04-10T15:04:05.336Z,49.19
2018-04-10T15:06:33.451Z,49.22
2018-04-10T15:09:02.330Z,48.96
2018-04-10T15:11:30.550Z,49.06
2018-04-10T15:13:58.664Z,48.91
2018-04-10T15:16:27.491Z,48.87
2018-04-10T15:18:55.586Z,49.08
2018-04-10T15:21:23.744Z,49.31
2018-04-10T15:23:51.840Z,49.06
2018-04-10T15:26:20.000Z,48.99
2018-04-10T15:28:48.082Z,48.52
2018-04-10T15:31:16.268Z,47.70
2018-04-10T15:33:44.377Z,47.80
2018-04-10T15:36:12.758Z,47.46
2018-04-10T15:38:41.221Z,47.07
2018-04-10T15:41:09.292Z,46.79
2018-04-10T15:43:37.409Z,46.79
2018-04-10T15:46:05.529Z,46.38
2018-04-10T15:48:33.663Z,46.33
2018-04-10T15:51:02.763Z,46.52
2018-04-10T15:53:30.877Z,46.13
2018-04-10T15:55:59.012Z,46.62
2018-04-10T15:58:27.119Z,46.76
2018-04-10T16:10:41.137Z,48.55
2018-04-10T16:13:09.244Z,48.82
2018-04-10T16:15:37.406Z,49.12
2018-04-10T16:18:05.464Z,48.95
2018-04-10T16:20:34.260Z,48.94
2018-04-10T16:23:02.396Z,48.91
2018-04-10T16:25:30.496Z,48.97
2018-04-10T16:27:58.607Z,49.13
2018-04-10T16:30:26.851Z,49.52
2018-04-10T16:32:54.959Z,49.62
2018-04-10T16:35:23.071Z,49.65
2018-04-10T16:37:51.200Z,49.71
2018-04-10T16:40:19.794Z,49.58
2018-04-10T16:42:47.920Z,49.39
2018-04-10T16:45:16.480Z,49.79
2018-04-10T16:47:44.594Z,50.15
2018-04-10T16:50:13.217Z,50.09
2018-04-10T16:52:41.338Z,50.62
2018-04-10T16:55:09.477Z,50.94
2018-04-10T17:10:37.622Z,52.05
2018-04-10T17:13:06.683Z,52.40
2018-04-10T17:15:34.803Z,52.52
2018-04-10T17:18:03.899Z,53.08
2018-04-10T17:20:32.816Z,53.29
2018-04-10T17:23:00.959Z,53.73
2018-04-10T17:25:29.093Z,53.90
2018-04-10T17:27:58.017Z,54.58
2018-04-10T17:30:26.237Z,54.96
2018-04-10T17:32:55.155Z,54.52
2018-04-10T17:35:23.283Z,55.71
2018-04-10T17:37:51.389Z,54.78
2018-04-10T17:40:19.765Z,55.81
2018-04-10T17:42:47.960Z,55.83
2018-04-10T17:45:16.036Z,56.02
2018-04-10T17:47:49.096Z,55.68
2018-04-10T17:50:17.201Z,56.19
2018-04-10T17:52:45.309Z,56.70
2018-04-10T17:55:13.425Z,56.59
2018-04-10T17:57:41.544Z,57.23
2018-04-10T18:00:10.717Z,57.85
2018-04-10T18:02:38.872Z,58.43
2018-04-10T18:05:06.981Z,59.10
2018-04-10T18:07:35.100Z,60.54
2018-04-10T18:10:03.836Z,61.11
2018-04-10T18:12:31.918Z,61.70
2018-04-10T18:15:00.039Z,62.30
2018-04-10T18:17:28.214Z,63.08
2018-04-10T18:19:56.381Z,62.64
2018-04-10T18:22:24.482Z,62.53
2018-04-10T18:24:52.744Z,62.54
2018-04-10T18:27:20.877Z,62.60
2018-04-10T18:29:48.989Z,62.23
2018-04-10T18:32:17.149Z,62.62
2018-04-10T18:34:45.264Z,62.22
2018-04-10T18:37:15.181Z,62.09
2018-04-10T18:39:43.332Z,62.33
2018-04-10T18:42:11.787Z,63.10
2018-04-10T18:44:39.904Z,62.67
2018-04-10T18:47:08.043Z,62.27
2018-04-10T18:49:36.175Z,62.35
2018-04-10T18:52:04.326Z,62.33
2018-04-10T18:54:32.428Z,62.59
2018-04-10T18:57:01.116Z,62.41
2018-04-10T18:59:29.590Z,62.37
2018-04-10T19:14:58.184Z,62.25
2018-04-10T19:17:26.315Z,62.30
2018-04-10T19:19:54.439Z,62.23
2018-04-10T19:22:23.453Z,62.15
2018-04-10T19:24:51.552Z,62.10
2018-04-10T19:27:19.963Z,62.08
2018-04-10T19:29:49.057Z,61.99
2018-04-10T19:32:17.647Z,61.98
2018-04-10T19:34:45.787Z,62.06
2018-04-10T19:37:13.915Z,62.25
2018-04-10T19:39:42.003Z,62.23
2018-04-10T19:55:10.127Z,62.92
2018-04-10T19:57:39.371Z,62.98
2018-04-10T20:00:07.509Z,62.95
2018-04-10T20:02:35.597Z,63.07
2018-04-10T20:05:04.477Z,63.05
2018-04-10T20:07:32.572Z,63.23
2018-04-10T20:10:00.677Z,63.24
2018-04-10T20:12:28.803Z,63.46
2018-04-10T20:14:56.890Z,63.40
2018-04-10T20:17:25.033Z,63.55
2018-04-10T20:19:53.698Z,63.58
2018-04-10T20:22:22.614Z,63.76
2018-04-10T20:24:51.832Z,63.95
2018-04-10T20:27:19.993Z,64.20
2018-04-10T20:29:48.058Z,64.43
2018-04-10T20:32:16.144Z,65.11
2018-04-10T20:34:44.522Z,65.25
2018-04-10T20:37:13.316Z,65.64
2018-04-10T20:39:41.426Z,65.96
2018-04-10T20:42:10.336Z,66.14
2018-04-10T20:44:38.426Z,66.43
2018-04-10T20:47:07.316Z,66.93
2018-04-10T20:49:35.422Z,67.31
2018-04-10T20:52:04.027Z,67.47
2018-04-10T20:54:32.153Z,67.48
2018-04-10T20:57:00.294Z,67.34
2018-04-10T20:59:28.433Z,67.31
2018-04-10T21:01:57.483Z,67.30
2018-04-10T21:04:25.593Z,67.17
2018-04-10T21:06:53.693Z,67.15
2018-04-10T21:09:21.805Z,67.35
2018-04-10T21:24:49.927Z,68.49
2018-04-10T21:27:18.079Z,68.72
2018-04-10T21:29:46.185Z,69.19
2018-04-10T21:32:14.279Z,69.40
2018-04-10T21:34:42.419Z,69.69
2018-04-10T21:50:10.542Z,70.92
2018-04-10T21:52:38.662Z,70.80
2018-04-10T21:55:07.267Z,70.42
2018-04-10T21:57:35.412Z,70.95
2018-04-10T22:00:04.150Z,70.96
2018-04-10T22:02:32.388Z,70.97
2018-04-10T22:05:00.466Z,70.64
2018-04-10T22:07:28.605Z,71.08
2018-04-10T22:09:56.698Z,69.76
2018-04-10T22:12:25.306Z,69.77
2018-04-10T22:14:53.406Z,70.75
2018-04-10T22:17:21.525Z,71.00
2018-04-10T22:19:50.461Z,71.23
2018-04-10T22:22:18.545Z,71.47
2018-04-10T22:24:47.550Z,71.62
2018-04-10T22:27:15.686Z,72.65
2018-04-10T22:29:43.820Z,73.32
2018-04-10T22:32:11.937Z,77.90
2018-04-10T22:34:40.879Z,80.58
2018-04-10T22:37:10.147Z,80.78
2018-04-10T22:39:38.529Z,80.59
2018-04-10T22:42:07.161Z,80.38
2018-04-10T22:44:35.652Z,80.14
2018-04-10T22:47:04.240Z,79.91
2018-04-10T22:49:32.369Z,80.11
2018-04-10T22:52:01.303Z,80.29
2018-04-10T22:54:30.609Z,81.50
2018-04-10T22:56:58.946Z,81.82
2018-04-10T22:59:27.042Z,81.52
2018-04-10T23:01:55.154Z,80.47
2018-04-10T23:04:23.270Z,79.29
2018-04-10T23:06:51.368Z,79.03
2018-04-10T23:09:19.483Z,80.23
2018-04-10T23:11:48.403Z,80.48
2018-04-10T23:14:16.521Z,79.98
2018-04-10T23:16:44.897Z,79.96
2018-04-10T23:19:13.008Z,79.30
2018-04-10T23:21:41.105Z,79.73
2018-04-10T23:24:10.103Z,80.16
2018-04-10T23:26:38.460Z,79.98
2018-04-10T23:29:06.548Z,79.25
2018-04-10T23:31:34.683Z,79.38
2018-04-10T23:34:03.076Z,79.28
2018-04-10T23:36:31.167Z,78.82
2018-04-10T23:38:59.254Z,78.75
2018-04-10T23:41:27.469Z,78.75
2018-04-10T23:43:55.594Z,78.27
2018-04-10T23:46:24.068Z,77.60
2018-04-10T23:48:52.164Z,77.50
2018-04-10T23:51:20.260Z,77.62
2018-04-10T23:53:49.309Z,77.59
2018-04-10T23:56:17.371Z,77.59
2018-04-10T23:58:45.488Z,77.22
